Time,TemperatureF,DewpointF,PressureIn,WindDirection,WindDirectionDegrees,WindSpeedMPH,WindSpeedGustMPH,Humidity,HourlyPrecipIn,Conditions,Clouds,dailyrainin,SolarRadiationWatts/m^2,SoftwareType,DateUTC
2013-02-11 00:01:00,32.0,31.0,-100.00,SE,138,7.0,12.0,97,0.00,,,0.00,0.000000,,2013-02-11 05:01:00,
2013-02-11 00:42:00,32.0,32.0,-100.00,SE,136,6.0,14.0,98,0.00,,,0.00,0.000000,,2013-02-11 05:42:00,
2013-02-11 00:53:00,32.0,32.0,-100.00,SE,136,6.0,14.0,98,0.00,,,0.00,0.000000,,2013-02-11 05:53:00,
2013-02-11 01:02:00,32.0,32.0,-100.00,SE,136,6.0,14.0,98,0.00,,,0.00,0.000000,,2013-02-11 06:02:00,
2013-02-11 01:11:00,32.0,32.0,-100.00,SE,136,6.0,14.0,98,0.00,,,0.00,0.000000,,2013-02-11 06:11:00,
2013-02-11 01:42:00,32.0,32.0,-100.00,SE,135,4.0,9.0,98,0.00,,,0.00,0.000000,,2013-02-11 06:42:00,
2013-02-11 01:52:00,32.0,32.0,-100.00,SE,135,4.0,9.0,98,0.00,,,0.00,0.000000,,2013-02-11 06:52:00,
2013-02-11 02:01:00,32.0,32.0,-100.00,SE,135,4.0,9.0,98,0.00,,,0.00,0.000000,,2013-02-11 07:01:00,
2013-02-11 02:11:00,32.0,32.0,-100.00,SE,135,4.0,9.0,98,0.00,,,0.00,0.000000,,2013-02-11 07:11:00,
2013-02-11 02:42:00,32.0,32.0,-100.00,SE,125,4.0,9.0,98,0.00,,,0.00,0.000000,,2013-02-11 07:42:00,
2013-02-11 02:52:00,32.0,32.0,-100.00,SE,125,4.0,9.0,98,0.00,,,0.00,0.000000,,2013-02-11 07:52:00,
2013-02-11 03:01:00,32.0,32.0,-100.00,SE,125,4.0,9.0,98,0.00,,,0.00,0.000000,,2013-02-11 08:01:00,
2013-02-11 03:11:00,32.0,32.0,-100.00,SE,125,4.0,9.0,98,0.00,,,0.00,0.000000,,2013-02-11 08:11:00,
2013-02-11 03:12:00,33.0,32.0,-100.00,SE,141,4.0,7.0,98,0.00,,,0.00,0.000000,,2013-02-11 08:12:00,
2013-02-11 03:42:00,33.0,32.0,-100.00,SE,141,4.0,7.0,98,0.00,,,0.00,0.000000,,2013-02-11 08:42:00,
2013-02-11 03:52:00,33.0,32.0,-100.00,SE,141,4.0,7.0,98,0.00,,,0.00,0.000000,,2013-02-11 08:52:00,
2013-02-11 04:01:00,33.0,32.0,-100.00,SE,141,4.0,7.0,98,0.00,,,0.00,0.000000,,2013-02-11 09:01:00,
2013-02-11 04:32:00,33.0,32.0,-100.00,SE,143,3.0,5.0,98,0.00,,,0.00,0.000000,,2013-02-11 09:32:00,
2013-02-11 04:42:00,33.0,32.0,-100.00,SE,143,3.0,5.0,98,0.00,,,0.00,0.000000,,2013-02-11 09:42:00,
2013-02-11 04:52:00,33.0,32.0,-100.00,SE,143,3.0,5.0,98,0.00,,,0.00,0.000000,,2013-02-11 09:52:00,
2013-02-11 05:01:00,33.0,32.0,-100.00,SE,143,3.0,5.0,98,0.00,,,0.00,0.000000,,2013-02-11 10:01:00,
2013-02-11 05:11:00,33.0,32.0,-100.00,SE,143,3.0,5.0,98,0.00,,,0.00,0.000000,,2013-02-11 10:11:00,
2013-02-11 05:42:00,33.0,32.0,-100.00,South,179,3.0,6.0,98,0.00,,,0.00,0.000000,,2013-02-11 10:42:00,
2013-02-11 05:52:00,33.0,32.0,-100.00,South,179,3.0,6.0,98,0.00,,,0.00,0.000000,,2013-02-11 10:52:00,
2013-02-11 06:01:00,33.0,32.0,-100.00,South,179,3.0,6.0,98,0.00,,,0.00,0.000000,,2013-02-11 11:01:00,
2013-02-11 06:11:00,33.0,32.0,-100.00,South,179,3.0,6.0,98,0.00,,,0.00,0.000000,,2013-02-11 11:11:00,
2013-02-11 06:12:00,33.0,32.0,-100.00,SSW,202,4.0,8.0,98,0.00,,,0.00,0.000000,,2013-02-11 11:12:00,
2013-02-11 06:42:00,33.0,32.0,-100.00,SSW,202,4.0,8.0,98,0.00,,,0.00,0.000000,,2013-02-11 11:42:00,
2013-02-11 06:52:00,33.0,32.0,-100.00,SSW,202,4.0,8.0,98,0.00,,,0.00,0.000000,,2013-02-11 11:52:00,
2013-02-11 07:03:00,33.0,32.0,-100.00,SSW,202,4.0,8.0,98,0.00,,,0.00,0.000000,,2013-02-11 12:03:00,
2013-02-11 07:32:00,33.0,32.0,-100.00,SW,218,4.0,8.0,98,0.00,,,-99.99,0.000000,,2013-02-11 12:32:00,
2013-02-11 07:42:00,33.0,32.0,-100.00,SW,218,4.0,8.0,98,0.00,,,-99.99,0.000000,,2013-02-11 12:42:00,
2013-02-11 07:52:00,33.0,32.0,-100.00,SW,218,4.0,8.0,98,0.00,,,-99.99,0.000000,,2013-02-11 12:52:00,
2013-02-11 08:02:00,33.0,32.0,-100.00,SW,218,4.0,8.0,98,0.00,,,-99.99,0.000000,,2013-02-11 13:02:00,
2013-02-11 08:11:00,33.0,32.0,-100.00,SW,218,4.0,8.0,98,0.00,,,-99.99,0.000000,,2013-02-11 13:11:00,
2013-02-11 08:42:00,33.0,32.0,-100.00,SW,224,5.0,9.0,98,0.00,,,-99.99,1.000000,,2013-02-11 13:42:00,
2013-02-11 08:52:00,33.0,32.0,-100.00,SW,224,5.0,9.0,98,0.00,,,-99.99,1.000000,,2013-02-11 13:52:00,
2013-02-11 09:02:00,33.0,32.0,-100.00,SW,224,5.0,9.0,98,0.00,,,-99.99,1.000000,,2013-02-11 14:02:00,
2013-02-11 09:11:00,33.0,32.0,-100.00,SW,224,5.0,9.0,98,0.00,,,-99.99,1.000000,,2013-02-11 14:11:00,
2013-02-11 09:42:00,33.0,32.0,-100.00,WSW,238,4.0,9.0,98,0.00,,,-99.99,14.000000,,2013-02-11 14:42:00,
2013-02-11 09:53:00,33.0,32.0,-100.00,WSW,238,4.0,9.0,98,0.00,,,-99.99,14.000000,,2013-02-11 14:53:00,
2013-02-11 10:02:00,33.0,32.0,-100.00,WSW,238,4.0,9.0,98,0.00,,,-99.99,14.000000,,2013-02-11 15:02:00,
2013-02-11 10:11:00,33.0,32.0,-100.00,WSW,238,4.0,9.0,98,0.00,,,-99.99,14.000000,,2013-02-11 15:11:00,
2013-02-11 10:42:00,33.0,32.0,-100.00,WSW,242,5.0,9.0,98,0.00,,,0.00,56.000000,,2013-02-11 15:42:00,
2013-02-11 10:52:00,33.0,32.0,-100.00,WSW,242,5.0,9.0,98,0.00,,,0.00,56.000000,,2013-02-11 15:52:00,
2013-02-11 11:02:00,33.0,32.0,-100.00,WSW,242,5.0,9.0,98,0.00,,,0.00,56.000000,,2013-02-11 16:02:00,
2013-02-11 11:11:00,33.0,32.0,-100.00,WSW,242,5.0,9.0,98,0.00,,,0.00,56.000000,,2013-02-11 16:11:00,
2013-02-11 11:32:00,33.0,32.0,-100.00,WNW,302,5.0,8.0,98,0.00,,,0.00,75.000000,,2013-02-11 16:32:00,
2013-02-11 11:42:00,33.0,32.0,-100.00,WNW,302,5.0,8.0,98,0.00,,,0.00,75.000000,,2013-02-11 16:42:00,
2013-02-11 11:52:00,33.0,32.0,-100.00,WNW,302,5.0,8.0,98,0.00,,,0.00,75.000000,,2013-02-11 16:52:00,
2013-02-11 12:02:00,33.0,32.0,-100.00,WNW,302,5.0,8.0,98,0.00,,,0.00,75.000000,,2013-02-11 17:02:00,
2013-02-11 12:11:00,33.0,32.0,-100.00,WNW,302,5.0,8.0,98,0.00,,,0.00,75.000000,,2013-02-11 17:11:00,
2013-02-11 12:42:00,32.0,31.0,-100.00,NW,324,11.0,20.0,97,0.00,,,0.00,104.000000,,2013-02-11 17:42:00,
2013-02-11 12:53:00,32.0,31.0,-100.00,NW,324,11.0,20.0,97,0.00,,,0.00,104.000000,,2013-02-11 17:53:00,
2013-02-11 13:02:00,32.0,31.0,-100.00,NW,324,11.0,20.0,97,0.00,,,0.00,104.000000,,2013-02-11 18:02:00,
2013-02-11 13:11:00,32.0,31.0,-100.00,NW,324,11.0,20.0,97,0.00,,,0.00,104.000000,,2013-02-11 18:11:00,
2013-02-11 13:42:00,31.0,28.0,-100.00,NW,324,10.0,20.0,87,0.00,,,0.00,106.000000,,2013-02-11 18:42:00,
2013-02-11 13:53:00,31.0,28.0,-100.00,NW,324,10.0,20.0,87,0.00,,,0.00,106.000000,,2013-02-11 18:53:00,
2013-02-11 14:02:00,31.0,28.0,-100.00,NW,324,10.0,20.0,87,0.00,,,0.00,106.000000,,2013-02-11 19:02:00,
2013-02-11 14:11:00,31.0,28.0,-100.00,NW,324,10.0,20.0,87,0.00,,,0.00,106.000000,,2013-02-11 19:11:00,
2013-02-11 15:42:00,26.0,21.0,-100.00,NW,317,12.0,26.0,81,-99.99,,,0.00,85.000000,,2013-02-11 20:42:00,
2013-02-11 15:52:00,26.0,21.0,-100.00,NW,317,12.0,26.0,81,-99.99,,,0.00,85.000000,,2013-02-11 20:52:00,
2013-02-11 16:02:00,26.0,21.0,-100.00,NW,317,12.0,26.0,81,-99.99,,,0.00,85.000000,,2013-02-11 21:02:00,
2013-02-11 16:11:00,26.0,21.0,-100.00,NW,317,12.0,26.0,81,-99.99,,,0.00,85.000000,,2013-02-11 21:11:00,
2013-02-11 16:32:00,25.0,20.0,-100.00,NW,311,10.0,23.0,81,0.00,,,0.00,78.000000,,2013-02-11 21:32:00,
2013-02-11 16:42:00,25.0,20.0,-100.00,NW,311,10.0,23.0,81,0.00,,,0.00,78.000000,,2013-02-11 21:42:00,
2013-02-11 16:52:00,25.0,20.0,-100.00,NW,311,10.0,23.0,81,0.00,,,0.00,78.000000,,2013-02-11 21:52:00,
2013-02-11 17:02:00,25.0,20.0,-100.00,NW,311,10.0,23.0,81,0.00,,,0.00,78.000000,,2013-02-11 22:02:00,
2013-02-11 17:11:00,25.0,20.0,-100.00,NW,311,10.0,23.0,81,0.00,,,0.00,78.000000,,2013-02-11 22:11:00,
2013-02-11 17:32:00,24.0,18.0,-100.00,NW,325,10.0,23.0,79,0.00,,,0.00,56.000000,,2013-02-11 22:32:00,
2013-02-11 17:42:00,24.0,18.0,-100.00,NW,325,10.0,23.0,79,0.00,,,0.00,56.000000,,2013-02-11 22:42:00,
2013-02-11 17:52:00,24.0,18.0,-100.00,NW,325,10.0,23.0,79,0.00,,,0.00,56.000000,,2013-02-11 22:52:00,
2013-02-11 18:02:00,24.0,18.0,-100.00,NW,325,10.0,23.0,79,0.00,,,0.00,56.000000,,2013-02-11 23:02:00,
2013-02-11 18:11:00,24.0,18.0,-100.00,NW,325,10.0,23.0,79,0.00,,,0.00,56.000000,,2013-02-11 23:11:00,
2013-02-11 18:32:00,22.0,16.0,-100.00,NW,307,9.0,20.0,77,0.00,,,0.00,12.000000,,2013-02-11 23:32:00,
2013-02-11 18:42:00,22.0,16.0,-100.00,NW,307,9.0,20.0,77,0.00,,,0.00,12.000000,,2013-02-11 23:42:00,
2013-02-11 18:52:00,22.0,16.0,-100.00,NW,307,9.0,20.0,77,0.00,,,0.00,12.000000,,2013-02-11 23:52:00,
2013-02-11 19:02:00,22.0,16.0,-100.00,NW,307,9.0,20.0,77,0.00,,,0.00,12.000000,,2013-02-12 00:02:00,
2013-02-11 19:11:00,22.0,16.0,-100.00,NW,307,9.0,20.0,77,0.00,,,0.00,12.000000,,2013-02-12 00:11:00,
2013-02-11 19:32:00,21.0,15.0,-100.00,NW,310,8.0,19.0,78,0.00,,,0.00,0.000000,,2013-02-12 00:32:00,
2013-02-11 19:42:00,21.0,15.0,-100.00,NW,310,8.0,19.0,78,0.00,,,0.00,0.000000,,2013-02-12 00:42:00,
2013-02-11 19:52:00,21.0,15.0,-100.00,NW,310,8.0,19.0,78,0.00,,,0.00,0.000000,,2013-02-12 00:52:00,
2013-02-11 20:02:00,21.0,15.0,-100.00,NW,310,8.0,19.0,78,0.00,,,0.00,0.000000,,2013-02-12 01:02:00,
2013-02-11 20:11:00,21.0,15.0,-100.00,NW,310,8.0,19.0,78,0.00,,,0.00,0.000000,,2013-02-12 01:11:00,
2013-02-11 20:12:00,20.0,15.0,-100.00,NW,307,5.0,15.0,82,0.00,,,-99.99,0.000000,,2013-02-12 01:12:00,
2013-02-11 20:42:00,20.0,15.0,-100.00,NW,307,5.0,15.0,82,0.00,,,-99.99,0.000000,,2013-02-12 01:42:00,
2013-02-11 20:52:00,20.0,15.0,-100.00,NW,307,5.0,15.0,82,0.00,,,-99.99,0.000000,,2013-02-12 01:52:00,
2013-02-11 21:01:00,20.0,15.0,-100.00,NW,307,5.0,15.0,82,0.00,,,-99.99,0.000000,,2013-02-12 02:01:00,
2013-02-11 21:32:00,20.0,16.0,-100.00,WNW,301,6.0,14.0,83,0.00,,,0.00,0.000000,,2013-02-12 02:32:00,
2013-02-11 21:42:00,20.0,16.0,-100.00,WNW,301,6.0,14.0,83,0.00,,,0.00,0.000000,,2013-02-12 02:42:00,
2013-02-11 21:53:00,20.0,16.0,-100.00,WNW,301,6.0,14.0,83,0.00,,,0.00,0.000000,,2013-02-12 02:53:00,
2013-02-11 22:02:00,20.0,16.0,-100.00,WNW,301,6.0,14.0,83,0.00,,,0.00,0.000000,,2013-02-12 03:02:00,
2013-02-11 22:11:00,20.0,16.0,-100.00,WNW,301,6.0,14.0,83,0.00,,,0.00,0.000000,,2013-02-12 03:11:00,
2013-02-11 22:32:00,20.0,14.0,-100.00,NW,305,6.0,14.0,78,0.00,,,0.00,0.000000,,2013-02-12 03:32:00,
2013-02-11 22:42:00,20.0,14.0,-100.00,NW,305,6.0,14.0,78,0.00,,,0.00,0.000000,,2013-02-12 03:42:00,
2013-02-11 22:52:00,20.0,14.0,-100.00,NW,305,6.0,14.0,78,0.00,,,0.00,0.000000,,2013-02-12 03:52:00,
2013-02-11 23:01:00,20.0,14.0,-100.00,NW,305,6.0,14.0,78,0.00,,,0.00,0.000000,,2013-02-12 04:01:00,
2013-02-11 23:11:00,20.0,14.0,-100.00,NW,305,6.0,14.0,78,0.00,,,0.00,0.000000,,2013-02-12 04:11:00,
2013-02-11 23:32:00,18.0,13.0,-100.00,West,277,4.0,11.0,82,0.00,,,0.00,0.000000,,2013-02-12 04:32:00,
2013-02-11 23:42:00,18.0,13.0,-100.00,West,277,4.0,11.0,82,0.00,,,0.00,0.000000,,2013-02-12 04:42:00,
2013-02-11 23:52:00,18.0,13.0,-100.00,West,277,4.0,11.0,82,0.00,,,0.00,0.000000,,2013-02-12 04:52:00,